Time;durP1;ratioP1;P1;durP2;ratioP2;P2;SDS_P1;SDS_P2;PMS_P1;PMS_P2;Temp;Humidity;BMP_temperature;BMP_pressure;BME280_temperature;BME280_humidity;BME280_pressure;Samples;Min_cycle;Max_cycle;Signal;HPM_P1;HPM_P2
2023/12/25 00:00:46;;;;;;;11.32;10.77;;;;;;;;;;5070960;28;20027;-56
2023/12/25 00:03:11;;;;;;;11.20;10.70;;;;;;;;;;5071082;28;20082;-55
2023/12/25 00:05:37;;;;;;;10.73;10.23;;;;;;;;;;5069431;28;20070;-56
2023/12/25 00:08:02;;;;;;;11.55;10.95;;;;;;;;;;5071722;28;20530;-55
2023/12/25 00:10:28;;;;;;;11.02;10.52;;;;;;;;;;5068712;28;20609;-55
2023/12/25 00:12:53;;;;;;;11.20;10.70;;;;;;;;;;5067722;28;20036;-57
2023/12/25 00:15:19;;;;;;;11.25;10.75;;;;;;;;;;5070905;28;20025;-57
2023/12/25 00:17:44;;;;;;;10.98;10.48;;;;;;;;;;5061404;28;20044;-56
2023/12/25 00:20:10;;;;;;;11.40;10.90;;;;;;;;;;5067565;28;20024;-56
2023/12/25 00:22:36;;;;;;;10.70;10.20;;;;;;;;;;5071370;28;20086;-54
2023/12/25 00:25:01;;;;;;;11.23;10.73;;;;;;;;;;5066753;28;20468;-57
2023/12/25 00:27:26;;;;;;;10.95;10.45;;;;;;;;;;5060272;28;20541;-58
2023/12/25 00:29:51;;;;;;;10.98;10.48;;;;;;;;;;5070904;28;20796;-56
2023/12/25 00:32:17;;;;;;;11.55;10.95;;;;;;;;;;5069065;28;20021;-58
2023/12/25 00:34:42;;;;;;;11.02;10.52;;;;;;;;;;5070672;28;20103;-57
2023/12/25 00:37:08;;;;;;;11.10;10.60;;;;;;;;;;5070706;28;20082;-58
2023/12/25 00:39:33;;;;;;;11.60;11.00;;;;;;;;;;5070340;28;20013;-56
2023/12/25 00:41:59;;;;;;;11.00;10.50;;;;;;;;;;5070683;28;20016;-57
2023/12/25 00:44:24;;;;;;;11.20;10.70;;;;;;;;;;5070815;28;20017;-56
2023/12/25 00:46:49;;;;;;;11.05;10.55;;;;;;;;;;5065130;28;20528;-55
2023/12/25 00:49:16;;;;;;;11.00;10.50;;;;;;;;;;5070398;28;20047;-56
2023/12/25 00:51:41;;;;;;;11.07;10.57;;;;;;;;;;5075254;28;20048;-59
2023/12/25 00:54:07;;;;;;;10.75;10.25;;;;;;;;;;5065744;28;20048;-57
2023/12/25 00:56:32;;;;;;;11.27;10.77;;;;;;;;;;5068007;28;20051;-58
2023/12/25 00:58:59;;;;;;;11.00;10.50;;;;;;;;;;5073896;28;20070;-56
2023/12/25 01:01:24;;;;;;;11.95;11.35;;;;;;;;;;5063505;28;20089;-55
2023/12/25 01:03:49;;;;;;;11.77;11.18;;;;;;;;;;5073755;28;20476;-55
2023/12/25 01:06:15;;;;;;;11.20;10.70;;;;;;;;;;5070881;28;20029;-54
2023/12/25 01:08:40;;;;;;;11.20;10.70;;;;;;;;;;5071869;28;20025;-57
2023/12/25 01:11:06;;;;;;;11.63;11.02;;;;;;;;;;5075412;28;20032;-58
2023/12/25 01:13:32;;;;;;;11.40;10.90;;;;;;;;;;5069690;28;20028;-55
2023/12/25 01:15:57;;;;;;;11.10;10.60;;;;;;;;;;5071578;28;20056;-58
2023/12/25 01:18:23;;;;;;;11.88;11.27;;;;;;;;;;5072050;28;20012;-57
2023/12/25 01:20:48;;;;;;;11.10;10.60;;;;;;;;;;5073967;28;20036;-57
2023/12/25 01:23:13;;;;;;;10.70;10.20;;;;;;;;;;5070444;28;20077;-56
2023/12/25 01:25:39;;;;;;;11.15;10.65;;;;;;;;;;5074038;28;20025;-57
2023/12/25 01:28:05;;;;;;;11.00;10.50;;;;;;;;;;5070480;28;20024;-57
2023/12/25 01:30:30;;;;;;;11.30;10.80;;;;;;;;;;5073692;28;20029;-55
2023/12/25 01:32:55;;;;;;;11.20;10.70;;;;;;;;;;5066044;28;20027;-57
2023/12/25 01:35:21;;;;;;;11.32;10.82;;;;;;;;;;5069611;28;20393;-57
2023/12/25 01:37:46;;;;;;;11.10;10.60;;;;;;;;;;5071036;28;20468;-57
2023/12/25 01:40:12;;;;;;;11.23;10.73;;;;;;;;;;5071479;28;20450;-59
2023/12/25 01:42:40;;;;;;;11.15;10.65;;;;;;;;;;5073658;28;20506;-57
2023/12/25 01:45:06;;;;;;;11.07;10.57;;;;;;;;;;5073396;28;20445;-57
2023/12/25 01:47:31;;;;;;;11.15;10.63;;;;;;;;;;5071100;28;20103;-58
2023/12/25 01:50:00;;;;;;;10.80;10.30;;;;;;;;;;5072115;28;20028;-55
2023/12/25 01:52:26;;;;;;;11.10;10.60;;;;;;;;;;5073239;28;20399;-56
2023/12/25 01:54:51;;;;;;;11.32;10.75;;;;;;;;;;5070426;28;20031;-59
2023/12/25 01:57:16;;;;;;;10.60;10.10;;;;;;;;;;5072444;28;20056;-57
2023/12/25 01:59:42;;;;;;;10.88;10.38;;;;;;;;;;5072613;28;20008;-58
2023/12/25 02:02:07;;;;;;;11.00;10.50;;;;;;;;;;5072837;28;20025;-59
2023/12/25 02:04:33;;;;;;;11.10;10.60;;;;;;;;;;5070658;28;20016;-56
2023/12/25 02:06:59;;;;;;;10.90;10.40;;;;;;;;;;5068686;28;20108;-57
2023/12/25 02:09:24;;;;;;;10.70;10.20;;;;;;;;;;5071434;28;20070;-54
2023/12/25 02:11:50;;;;;;;12.18;11.52;;;;;;;;;;5070779;28;20029;-58
2023/12/25 02:14:15;;;;;;;11.10;10.60;;;;;;;;;;5074339;28;20361;-58
2023/12/25 02:16:41;;;;;;;11.60;11.00;;;;;;;;;;5072833;28;20040;-58
2023/12/25 02:19:11;;;;;;;11.02;10.52;;;;;;;;;;5071941;28;20017;-53
2023/12/25 02:21:36;;;;;;;11.10;10.60;;;;;;;;;;5072571;28;20028;-56
2023/12/25 02:24:05;;;;;;;11.57;10.98;;;;;;;;;;5069170;28;20017;-55
2023/12/25 02:26:30;;;;;;;10.82;10.32;;;;;;;;;;5072894;28;20024;-57
2023/12/25 02:28:56;;;;;;;10.80;10.30;;;;;;;;;;5073153;28;20514;-56
2023/12/25 02:31:23;;;;;;;11.85;11.25;;;;;;;;;;5072089;28;20097;-56
2023/12/25 02:33:48;;;;;;;11.00;10.50;;;;;;;;;;5072200;28;20017;-56
2023/12/25 02:36:14;;;;;;;11.73;11.13;;;;;;;;;;5072568;28;20024;-58
2023/12/25 02:38:39;;;;;;;11.45;10.88;;;;;;;;;;5069512;28;20380;-57
2023/12/25 02:41:04;;;;;;;11.52;10.93;;;;;;;;;;5069365;28;20354;-55
2023/12/25 02:43:30;;;;;;;11.00;10.50;;;;;;;;;;5068781;28;20024;-57
2023/12/25 02:45:55;;;;;;;11.00;10.50;;;;;;;;;;5070171;28;20019;-56
2023/12/25 02:48:20;;;;;;;10.93;10.43;;;;;;;;;;5068404;28;20110;-58
2023/12/25 02:50:45;;;;;;;11.32;10.77;;;;;;;;;;5073164;28;20051;-58
2023/12/25 02:53:11;;;;;;;11.20;10.70;;;;;;;;;;5062614;28;20380;-58
2023/12/25 02:55:37;;;;;;;11.00;10.50;;;;;;;;;;5071756;28;20373;-57
2023/12/25 02:58:03;;;;;;;11.15;10.65;;;;;;;;;;5070239;28;20059;-57
2023/12/25 03:00:28;;;;;;;11.48;10.90;;;;;;;;;;5066000;28;20429;-57
2023/12/25 03:02:54;;;;;;;11.93;11.32;;;;;;;;;;5070048;28;20451;-58
2023/12/25 03:05:19;;;;;;;11.50;10.90;;;;;;;;;;5069599;28;20024;-57
2023/12/25 03:07:44;;;;;;;11.02;10.52;;;;;;;;;;5059831;28;20020;-58
2023/12/25 03:10:10;;;;;;;11.20;10.70;;;;;;;;;;5071765;28;20055;-58
2023/12/25 03:12:35;;;;;;;10.50;10.00;;;;;;;;;;5066763;28;20391;-56
2023/12/25 03:15:00;;;;;;;10.98;10.48;;;;;;;;;;5062157;28;20013;-57
2023/12/25 03:17:26;;;;;;;11.00;10.50;;;;;;;;;;5070775;28;20041;-57
2023/12/25 03:19:51;;;;;;;11.10;10.60;;;;;;;;;;5069036;28;20021;-56
2023/12/25 03:22:16;;;;;;;10.90;10.40;;;;;;;;;;5067763;28;20030;-58
2023/12/25 03:24:42;;;;;;;10.85;10.35;;;;;;;;;;5071177;28;20020;-58
2023/12/25 03:27:07;;;;;;;10.82;10.32;;;;;;;;;;5071416;28;20491;-58
2023/12/25 03:29:32;;;;;;;10.90;10.40;;;;;;;;;;5068631;28;20029;-58
2023/12/25 03:31:58;;;;;;;10.95;10.45;;;;;;;;;;5071759;28;20034;-56
2023/12/25 03:34:23;;;;;;;10.95;10.45;;;;;;;;;;5070661;28;20031;-57
2023/12/25 03:36:48;;;;;;;10.77;10.27;;;;;;;;;;5071361;28;20016;-59
2023/12/25 03:39:14;;;;;;;10.50;10.00;;;;;;;;;;5064263;28;20389;-57
2023/12/25 03:41:39;;;;;;;10.52;10.02;;;;;;;;;;5074424;28;20021;-56
2023/12/25 03:44:04;;;;;;;11.10;10.60;;;;;;;;;;5068669;28;20105;-55
2023/12/25 03:46:30;;;;;;;10.60;10.10;;;;;;;;;;5068496;28;20130;-56
2023/12/25 03:48:55;;;;;;;11.93;11.32;;;;;;;;;;5067125;28;20451;-56
2023/12/25 03:51:20;;;;;;;11.30;10.80;;;;;;;;;;5072474;28;20028;-55
2023/12/25 03:53:46;;;;;;;11.55;10.95;;;;;;;;;;5071913;28;20288;-58
2023/12/25 03:56:16;;;;;;;11.02;10.52;;;;;;;;;;5069019;28;20479;-58
2023/12/25 03:58:41;;;;;;;10.98;10.48;;;;;;;;;;5069550;28;20030;-57
2023/12/25 04:01:07;;;;;;;10.98;10.48;;;;;;;;;;5070557;28;20021;-56
2023/12/25 04:03:32;;;;;;;10.77;10.27;;;;;;;;;;5070218;28;20021;-57
2023/12/25 04:05:57;;;;;;;11.00;10.50;;;;;;;;;;5065996;28;20459;-55
2023/12/25 04:08:23;;;;;;;10.80;10.30;;;;;;;;;;5070757;28;20025;-54
2023/12/25 04:10:48;;;;;;;10.77;10.27;;;;;;;;;;5061411;28;20059;-56
2023/12/25 04:13:13;;;;;;;10.70;10.20;;;;;;;;;;5069444;28;20047;-57
2023/12/25 04:15:39;;;;;;;10.75;10.25;;;;;;;;;;5069582;28;20024;-55
2023/12/25 04:18:04;;;;;;;10.90;10.40;;;;;;;;;;5069351;28;20031;-54
2023/12/25 04:20:29;;;;;;;11.00;10.50;;;;;;;;;;5069691;28;20365;-57
2023/12/25 04:22:55;;;;;;;11.00;10.50;;;;;;;;;;5076276;28;20045;-58
2023/12/25 04:25:20;;;;;;;10.60;10.10;;;;;;;;;;5068199;28;20025;-57
2023/12/25 04:27:46;;;;;;;10.52;10.02;;;;;;;;;;5069082;28;20025;-57
2023/12/25 04:30:11;;;;;;;10.60;10.10;;;;;;;;;;5068302;28;20016;-57
2023/12/25 04:32:36;;;;;;;10.60;10.10;;;;;;;;;;5074479;28;20078;-56
2023/12/25 04:35:02;;;;;;;10.35;9.85;;;;;;;;;;5074269;28;20029;-56
2023/12/25 04:37:27;;;;;;;10.85;10.35;;;;;;;;;;5074518;28;20016;-58
2023/12/25 04:39:52;;;;;;;10.60;10.10;;;;;;;;;;5070762;28;20017;-57
2023/12/25 04:42:18;;;;;;;10.70;10.20;;;;;;;;;;5074436;28;20009;-55
2023/12/25 04:44:43;;;;;;;10.88;10.38;;;;;;;;;;5071288;28;20027;-58
2023/12/25 04:47:08;;;;;;;11.20;10.70;;;;;;;;;;5077426;28;20066;-56
2023/12/25 04:49:34;;;;;;;11.52;10.93;;;;;;;;;;5072277;28;20024;-56
2023/12/25 04:52:00;;;;;;;11.20;10.70;;;;;;;;;;5074386;28;20379;-57
2023/12/25 04:54:25;;;;;;;10.70;10.20;;;;;;;;;;5074548;28;20020;-56
2023/12/25 04:56:53;;;;;;;10.88;10.38;;;;;;;;;;5074140;28;20017;-56
2023/12/25 04:59:20;;;;;;;10.55;10.05;;;;;;;;;;5068856;28;20047;-56
2023/12/25 05:01:48;;;;;;;10.90;10.40;;;;;;;;;;5073025;28;20020;-56
2023/12/25 05:04:14;;;;;;;10.60;10.10;;;;;;;;;;5068024;28;20356;-57
2023/12/25 05:06:39;;;;;;;10.85;10.35;;;;;;;;;;5067438;28;20027;-57
2023/12/25 05:09:05;;;;;;;10.80;10.30;;;;;;;;;;5074234;28;20550;-57
2023/12/25 05:11:30;;;;;;;11.30;10.80;;;;;;;;;;5071130;28;20737;-57
2023/12/25 05:13:55;;;;;;;11.05;10.55;;;;;;;;;;5074469;28;20447;-57
2023/12/25 05:16:21;;;;;;;11.10;10.60;;;;;;;;;;5073273;28;20047;-56
2023/12/25 05:18:46;;;;;;;11.25;10.75;;;;;;;;;;5073699;28;20432;-57
2023/12/25 05:21:11;;;;;;;11.20;10.70;;;;;;;;;;5071981;28;20048;-59
2023/12/25 05:23:37;;;;;;;11.10;10.60;;;;;;;;;;5073365;28;20483;-58
2023/12/25 05:26:02;;;;;;;11.10;10.60;;;;;;;;;;5070416;28;20027;-58
2023/12/25 05:28:27;;;;;;;11.00;10.50;;;;;;;;;;5067294;28;20029;-56
2023/12/25 05:30:53;;;;;;;11.13;10.63;;;;;;;;;;5069771;28;20021;-57
2023/12/25 05:33:19;;;;;;;11.02;10.52;;;;;;;;;;5073299;28;20499;-58
2023/12/25 05:35:45;;;;;;;11.15;10.65;;;;;;;;;;5072908;28;20023;-58
2023/12/25 05:38:10;;;;;;;10.82;10.32;;;;;;;;;;5071354;28;20096;-55
2023/12/25 05:40:35;;;;;;;11.00;10.50;;;;;;;;;;5071417;28;20028;-58
2023/12/25 05:43:01;;;;;;;11.20;10.70;;;;;;;;;;5071850;28;20024;-58
2023/12/25 05:45:26;;;;;;;11.13;10.63;;;;;;;;;;5073369;28;20052;-58
2023/12/25 05:47:52;;;;;;;11.80;11.20;;;;;;;;;;5073363;28;20054;-60
2023/12/25 05:50:18;;;;;;;11.55;11.05;;;;;;;;;;5064940;28;20094;-57
2023/12/25 05:52:43;;;;;;;11.10;10.60;;;;;;;;;;5072806;28;20024;-56
2023/12/25 05:55:08;;;;;;;11.07;10.57;;;;;;;;;;5072265;28;20448;-59
2023/12/25 05:57:34;;;;;;;11.40;10.90;;;;;;;;;;5071035;28;20478;-56
2023/12/25 05:59:59;;;;;;;11.40;10.90;;;;;;;;;;5072996;28;20019;-56
2023/12/25 06:02:24;;;;;;;11.15;10.65;;;;;;;;;;5069531;28;20033;-58
2023/12/25 06:04:50;;;;;;;11.82;11.23;;;;;;;;;;5067913;28;20487;-59
2023/12/25 06:07:15;;;;;;;11.48;10.98;;;;;;;;;;5065758;28;20024;-58
2023/12/25 06:09:41;;;;;;;11.75;11.18;;;;;;;;;;5068591;28;20017;-55
2023/12/25 06:12:06;;;;;;;11.48;10.93;;;;;;;;;;5066806;28;20025;-59
2023/12/25 06:14:31;;;;;;;11.55;11.05;;;;;;;;;;5069421;28;20025;-58
2023/12/25 06:16:57;;;;;;;11.30;10.80;;;;;;;;;;5070366;28;20131;-59
2023/12/25 06:19:23;;;;;;;11.70;11.13;;;;;;;;;;5072594;28;20051;-57
2023/12/25 06:21:49;;;;;;;11.25;10.75;;;;;;;;;;5073940;28;20025;-58
2023/12/25 06:24:14;;;;;;;11.00;10.50;;;;;;;;;;5072551;28;20375;-57
2023/12/25 06:26:39;;;;;;;11.38;10.88;;;;;;;;;;5072049;28;20075;-57
2023/12/25 06:29:05;;;;;;;11.48;10.98;;;;;;;;;;5075747;28;20426;-57
2023/12/25 06:31:30;;;;;;;11.60;11.10;;;;;;;;;;5072555;28;20104;-57
2023/12/25 06:33:56;;;;;;;12.05;11.45;;;;;;;;;;5072568;28;20035;-59
2023/12/25 06:36:21;;;;;;;11.70;11.20;;;;;;;;;;5066031;28;20020;-57
2023/12/25 06:38:47;;;;;;;11.90;11.30;;;;;;;;;;5072082;28;20395;-56
2023/12/25 06:41:12;;;;;;;11.43;10.93;;;;;;;;;;5070257;28;20027;-59
2023/12/25 06:43:37;;;;;;;11.60;11.10;;;;;;;;;;5065831;28;20083;-60
2023/12/25 06:46:03;;;;;;;11.50;11.00;;;;;;;;;;5071925;28;20440;-58
2023/12/25 06:48:29;;;;;;;11.38;10.88;;;;;;;;;;5060425;28;20043;-58
2023/12/25 06:50:54;;;;;;;11.18;10.68;;;;;;;;;;5061247;28;20693;-58
2023/12/25 06:53:19;;;;;;;11.25;10.75;;;;;;;;;;5066377;28;20036;-61
2023/12/25 06:55:45;;;;;;;11.73;11.23;;;;;;;;;;5071914;28;20499;-59
2023/12/25 06:58:10;;;;;;;11.40;10.90;;;;;;;;;;5063511;28;20070;-60
2023/12/25 07:00:36;;;;;;;12.20;11.60;;;;;;;;;;5071297;28;20021;-59
2023/12/25 07:03:01;;;;;;;12.05;11.45;;;;;;;;;;5070968;28;20048;-58
2023/12/25 07:05:26;;;;;;;12.60;12.00;;;;;;;;;;5068596;28;20106;-56
2023/12/25 07:07:52;;;;;;;11.98;11.38;;;;;;;;;;5067475;28;20042;-57
2023/12/25 07:10:18;;;;;;;11.43;10.93;;;;;;;;;;5072728;28;20521;-57
2023/12/25 07:12:43;;;;;;;12.57;11.98;;;;;;;;;;5069464;28;20059;-59
2023/12/25 07:15:09;;;;;;;11.82;11.32;;;;;;;;;;5070022;28;20400;-57
2023/12/25 07:17:34;;;;;;;11.80;11.30;;;;;;;;;;5066965;28;20671;-59
2023/12/25 07:19:59;;;;;;;11.95;11.43;;;;;;;;;;5072175;28;20016;-56
2023/12/25 07:22:24;;;;;;;11.68;11.18;;;;;;;;;;5077289;28;20021;-58
2023/12/25 07:24:50;;;;;;;12.02;11.50;;;;;;;;;;5070564;28;20039;-57
2023/12/25 07:27:15;;;;;;;12.30;11.70;;;;;;;;;;5065720;28;20021;-57
2023/12/25 07:29:41;;;;;;;12.20;11.60;;;;;;;;;;5065776;28;20105;-59
2023/12/25 07:32:07;;;;;;;12.35;11.75;;;;;;;;;;5079080;28;20073;-58
2023/12/25 07:34:32;;;;;;;12.35;11.77;;;;;;;;;;5069850;28;20033;-57
2023/12/25 07:36:58;;;;;;;12.50;11.90;;;;;;;;;;5069770;28;20099;-58
2023/12/25 07:39:23;;;;;;;12.18;11.68;;;;;;;;;;5066840;28;20029;-59
2023/12/25 07:41:48;;;;;;;12.88;12.27;;;;;;;;;;5066466;28;20095;-59
2023/12/25 07:44:14;;;;;;;12.50;11.90;;;;;;;;;;5068606;28;20020;-57
2023/12/25 07:46:39;;;;;;;12.57;11.98;;;;;;;;;;5067837;28;20036;-59
2023/12/25 07:49:05;;;;;;;12.90;12.30;;;;;;;;;;5064548;28;20020;-60
2023/12/25 07:51:30;;;;;;;12.77;12.18;;;;;;;;;;5066750;28;20033;-59
2023/12/25 07:53:55;;;;;;;12.70;12.10;;;;;;;;;;5067557;28;20403;-60
2023/12/25 07:56:21;;;;;;;12.90;12.30;;;;;;;;;;5066691;28;20025;-58
2023/12/25 07:58:46;;;;;;;12.93;12.32;;;;;;;;;;5067375;28;20478;-59
2023/12/25 08:01:13;;;;;;;12.68;12.07;;;;;;;;;;5068589;28;20368;-59
2023/12/25 08:03:38;;;;;;;13.10;12.50;;;;;;;;;;5064948;28;20548;-58
2023/12/25 08:06:04;;;;;;;13.02;12.43;;;;;;;;;;5064347;28;20033;-59
2023/12/25 08:08:29;;;;;;;12.95;12.35;;;;;;;;;;5061063;28;20024;-58
2023/12/25 08:10:55;;;;;;;12.57;11.98;;;;;;;;;;5066667;28;20070;-60
2023/12/25 08:13:20;;;;;;;12.50;11.90;;;;;;;;;;5068659;28;20105;-59
2023/12/25 08:15:45;;;;;;;12.70;12.10;;;;;;;;;;5011668;28;1347569;-58
2023/12/25 08:18:11;;;;;;;12.60;12.00;;;;;;;;;;5068043;28;20028;-56
2023/12/25 08:20:36;;;;;;;13.20;12.60;;;;;;;;;;5071853;28;20036;-59
2023/12/25 08:23:01;;;;;;;13.27;12.68;;;;;;;;;;5067430;28;20033;-59
2023/12/25 08:25:27;;;;;;;12.88;12.27;;;;;;;;;;5069314;28;20542;-59
2023/12/25 08:27:52;;;;;;;13.18;12.57;;;;;;;;;;5062300;28;20043;-59
2023/12/25 08:30:17;;;;;;;13.07;12.48;;;;;;;;;;5070886;28;20025;-58
2023/12/25 08:32:43;;;;;;;13.13;12.52;;;;;;;;;;5067629;28;20121;-60
2023/12/25 08:35:08;;;;;;;13.20;12.60;;;;;;;;;;5070944;28;20032;-59
2023/12/25 08:37:33;;;;;;;13.40;12.80;;;;;;;;;;5061034;28;20415;-58
2023/12/25 08:39:59;;;;;;;13.20;12.60;;;;;;;;;;5065117;28;20088;-59
2023/12/25 08:42:24;;;;;;;13.20;12.60;;;;;;;;;;5065138;28;20066;-59
2023/12/25 08:44:49;;;;;;;13.30;12.70;;;;;;;;;;5069955;28;20033;-58
2023/12/25 08:47:15;;;;;;;13.57;12.98;;;;;;;;;;5070836;28;20024;-59
2023/12/25 08:49:40;;;;;;;13.57;12.98;;;;;;;;;;5070446;28;20435;-59
2023/12/25 08:52:06;;;;;;;13.70;13.10;;;;;;;;;;5063291;28;20044;-59
2023/12/25 08:54:31;;;;;;;13.48;12.88;;;;;;;;;;5070573;28;20027;-59
2023/12/25 08:56:57;;;;;;;13.63;13.02;;;;;;;;;;5067982;28;20099;-59
2023/12/25 08:59:23;;;;;;;13.68;13.07;;;;;;;;;;5063679;28;20017;-59
2023/12/25 09:01:48;;;;;;;13.55;12.95;;;;;;;;;;5067253;28;20023;-59
2023/12/25 09:04:14;;;;;;;13.52;12.93;;;;;;;;;;5068272;28;20414;-59
2023/12/25 09:06:41;;;;;;;13.50;12.90;;;;;;;;;;5061713;28;20391;-58
2023/12/25 09:09:06;;;;;;;13.48;12.88;;;;;;;;;;5060254;28;20024;-59
2023/12/25 09:11:32;;;;;;;13.55;12.95;;;;;;;;;;5070907;28;20551;-61
2023/12/25 09:13:57;;;;;;;13.82;13.23;;;;;;;;;;5070139;28;20508;-55
2023/12/25 09:16:22;;;;;;;13.90;13.30;;;;;;;;;;5071767;28;20040;-59
2023/12/25 09:18:48;;;;;;;14.00;13.40;;;;;;;;;;5074049;28;20054;-59
2023/12/25 09:21:14;;;;;;;13.70;13.10;;;;;;;;;;5070031;28;20012;-58
2023/12/25 09:23:40;;;;;;;13.43;12.82;;;;;;;;;;5067702;28;20024;-59
2023/12/25 09:26:05;;;;;;;13.90;13.30;;;;;;;;;;5073358;28;20025;-60
2023/12/25 09:28:30;;;;;;;13.25;12.65;;;;;;;;;;5073011;28;20027;-58
2023/12/25 09:30:56;;;;;;;13.40;12.80;;;;;;;;;;5067323;28;20392;-60
2023/12/25 09:33:21;;;;;;;13.30;12.70;;;;;;;;;;5072766;28;20024;-59
2023/12/25 09:35:47;;;;;;;13.50;12.90;;;;;;;;;;5070990;28;20029;-60
2023/12/25 09:38:12;;;;;;;13.10;12.50;;;;;;;;;;5067725;28;20017;-59
2023/12/25 09:40:37;;;;;;;13.60;13.00;;;;;;;;;;5069608;28;20016;-59
2023/12/25 09:43:03;;;;;;;13.40;12.80;;;;;;;;;;5073326;28;20407;-59
2023/12/25 09:45:33;;;;;;;13.63;13.02;;;;;;;;;;5069297;28;20113;-59
2023/12/25 09:47:58;;;;;;;13.57;12.98;;;;;;;;;;5066107;28;20013;-59
2023/12/25 09:50:23;;;;;;;13.45;12.85;;;;;;;;;;5067340;28;20491;-59
2023/12/25 09:52:49;;;;;;;13.13;12.52;;;;;;;;;;5068800;28;20765;-57
2023/12/25 09:55:14;;;;;;;13.25;12.65;;;;;;;;;;5069553;28;20031;-58
2023/12/25 09:57:40;;;;;;;13.38;12.77;;;;;;;;;;5073050;28;20112;-59
2023/12/25 10:00:07;;;;;;;13.13;12.52;;;;;;;;;;5068745;28;20024;-59
2023/12/25 10:02:34;;;;;;;13.20;12.60;;;;;;;;;;5070792;28;20036;-59
2023/12/25 10:04:59;;;;;;;13.32;12.73;;;;;;;;;;5071486;28;20024;-58
2023/12/25 10:07:25;;;;;;;12.85;12.25;;;;;;;;;;5072080;28;20012;-58
2023/12/25 10:09:53;;;;;;;13.15;12.55;;;;;;;;;;5064035;28;20047;-59
2023/12/25 10:12:19;;;;;;;13.18;12.57;;;;;;;;;;5073267;28;20353;-59
2023/12/25 10:14:45;;;;;;;13.38;12.77;;;;;;;;;;5074428;28;20031;-59
2023/12/25 10:17:11;;;;;;;13.13;12.52;;;;;;;;;;5060370;28;20500;-60
2023/12/25 10:19:48;;;;;;;13.40;12.80;;;;;;;;;;5066819;28;20066;-57
2023/12/25 10:22:26;;;;;;;13.40;12.80;;;;;;;;;;5066650;28;20017;-59
2023/12/25 10:24:52;;;;;;;12.88;12.27;;;;;;;;;;5068945;28;20127;-58
2023/12/25 10:27:18;;;;;;;13.00;12.40;;;;;;;;;;5068237;28;20112;-60
2023/12/25 10:29:44;;;;;;;13.20;12.60;;;;;;;;;;5069025;28;20070;-60
2023/12/25 10:32:20;;;;;;;13.70;13.10;;;;;;;;;;5068080;28;20075;-59
2023/12/25 10:34:45;;;;;;;12.75;12.15;;;;;;;;;;5072517;28;20025;-57
2023/12/25 10:37:12;;;;;;;12.88;12.27;;;;;;;;;;5064213;28;20499;-57
2023/12/25 10:39:38;;;;;;;13.10;12.50;;;;;;;;;;5072262;28;20142;-59
2023/12/25 10:42:04;;;;;;;13.20;12.60;;;;;;;;;;5070782;28;20108;-60
2023/12/25 10:44:29;;;;;;;12.93;12.32;;;;;;;;;;5068027;28;20042;-59
2023/12/25 10:46:57;;;;;;;13.10;12.50;;;;;;;;;;5073400;28;20024;-57
2023/12/25 10:49:23;;;;;;;12.88;12.27;;;;;;;;;;5072433;28;20077;-58
2023/12/25 10:51:49;;;;;;;12.82;12.23;;;;;;;;;;5067010;28;20024;-57
2023/12/25 10:54:16;;;;;;;13.30;12.70;;;;;;;;;;5070513;28;20032;-60
2023/12/25 10:56:43;;;;;;;13.05;12.45;;;;;;;;;;5059259;28;20096;-57
2023/12/25 10:59:14;;;;;;;12.73;12.13;;;;;;;;;;5063718;28;20029;-57
2023/12/25 11:01:43;;;;;;;13.35;12.75;;;;;;;;;;5064470;28;20026;-59
2023/12/25 11:04:08;;;;;;;13.23;12.63;;;;;;;;;;5071739;28;20017;-59
2023/12/25 11:06:34;;;;;;;12.85;12.25;;;;;;;;;;5064583;28;20025;-58
2023/12/25 11:09:00;;;;;;;13.30;12.70;;;;;;;;;;5068171;28;20025;-58
2023/12/25 11:11:25;;;;;;;12.95;12.35;;;;;;;;;;5068197;28;20395;-58
2023/12/25 11:13:51;;;;;;;12.95;12.35;;;;;;;;;;5060789;28;20073;-59
2023/12/25 11:16:16;;;;;;;13.90;13.25;;;;;;;;;;5061138;28;20053;-59
2023/12/25 11:18:42;;;;;;;13.00;12.40;;;;;;;;;;5070049;28;20423;-59
2023/12/25 11:21:08;;;;;;;13.30;12.70;;;;;;;;;;5076911;28;20020;-60
2023/12/25 11:23:35;;;;;;;13.23;12.63;;;;;;;;;;5068047;28;20024;-58
2023/12/25 11:26:00;;;;;;;13.00;12.40;;;;;;;;;;5067701;28;20399;-60
2023/12/25 11:28:26;;;;;;;12.80;12.20;;;;;;;;;;5069650;28;20035;-59
2023/12/25 11:30:52;;;;;;;13.20;12.60;;;;;;;;;;5076369;28;20025;-58
2023/12/25 11:33:20;;;;;;;12.80;12.20;;;;;;;;;;5069045;28;20029;-61
2023/12/25 11:35:46;;;;;;;12.80;12.20;;;;;;;;;;5071206;28;20013;-57
2023/12/25 11:38:18;;;;;;;13.00;12.40;;;;;;;;;;5070927;28;20020;-58
2023/12/25 11:40:44;;;;;;;13.32;12.73;;;;;;;;;;5062417;28;20025;-59
2023/12/25 11:43:09;;;;;;;13.02;12.43;;;;;;;;;;5063200;28;20024;-59
2023/12/25 11:45:45;;;;;;;12.98;12.38;;;;;;;;;;5066310;28;20057;-59
2023/12/25 11:48:13;;;;;;;12.70;12.10;;;;;;;;;;5062495;28;20644;-57
2023/12/25 11:50:41;;;;;;;13.00;12.40;;;;;;;;;;5071202;28;20555;-59
2023/12/25 11:53:07;;;;;;;13.05;12.45;;;;;;;;;;5070295;28;20021;-59
2023/12/25 11:55:32;;;;;;;13.40;12.80;;;;;;;;;;5063152;28;20022;-59
2023/12/25 11:57:58;;;;;;;13.15;12.55;;;;;;;;;;5070835;28;20009;-58
2023/12/25 12:00:23;;;;;;;13.15;12.55;;;;;;;;;;5070488;28;20021;-59
2023/12/25 12:02:49;;;;;;;13.00;12.40;;;;;;;;;;5072658;28;20020;-57
2023/12/25 12:05:15;;;;;;;12.75;12.15;;;;;;;;;;5066757;28;20029;-60
2023/12/25 12:07:40;;;;;;;12.98;12.38;;;;;;;;;;5069598;28;20036;-60
2023/12/25 12:10:06;;;;;;;12.68;12.07;;;;;;;;;;5069212;28;20023;-56
2023/12/25 12:12:31;;;;;;;12.65;12.05;;;;;;;;;;5069617;28;20377;-57
2023/12/25 12:14:57;;;;;;;12.80;12.20;;;;;;;;;;5063580;28;20025;-58
2023/12/25 12:17:22;;;;;;;12.63;12.02;;;;;;;;;;5070459;28;20067;-59
2023/12/25 12:19:48;;;;;;;13.63;13.02;;;;;;;;;;5070436;28;20032;-59
2023/12/25 12:22:16;;;;;;;12.98;12.38;;;;;;;;;;5067910;28;20052;-58
2023/12/25 12:24:42;;;;;;;12.98;12.38;;;;;;;;;;5066458;28;20025;-57
2023/12/25 12:27:12;;;;;;;12.88;12.27;;;;;;;;;;5070681;28;20028;-57
2023/12/25 12:29:38;;;;;;;13.52;12.93;;;;;;;;;;5068398;28;20025;-59
2023/12/25 12:32:05;;;;;;;13.27;12.68;;;;;;;;;;5068769;28;20012;-59
2023/12/25 12:34:30;;;;;;;12.82;12.23;;;;;;;;;;5070595;28;20051;-58
2023/12/25 12:37:04;;;;;;;12.80;12.20;;;;;;;;;;5064082;28;20048;-59
2023/12/25 12:39:30;;;;;;;12.70;12.10;;;;;;;;;;5067626;28;20052;-56
2023/12/25 12:41:56;;;;;;;12.70;12.10;;;;;;;;;;5067624;28;20020;-60
2023/12/25 12:44:25;;;;;;;12.73;12.13;;;;;;;;;;5061925;28;20017;-60
2023/12/25 12:46:51;;;;;;;12.45;11.85;;;;;;;;;;5069550;28;20031;-59
2023/12/25 12:49:17;;;;;;;12.77;12.18;;;;;;;;;;5070913;28;20025;-60
2023/12/25 12:51:43;;;;;;;12.85;12.25;;;;;;;;;;5067426;28;20029;-58
2023/12/25 12:54:08;;;;;;;12.60;12.00;;;;;;;;;;5073147;28;20027;-59
2023/12/25 12:56:33;;;;;;;13.00;12.40;;;;;;;;;;5071388;28;20055;-57
2023/12/25 12:58:59;;;;;;;12.50;11.90;;;;;;;;;;5074963;28;20017;-58
2023/12/25 13:01:24;;;;;;;12.80;12.20;;;;;;;;;;5074400;28;20086;-57
2023/12/25 13:03:51;;;;;;;12.82;12.23;;;;;;;;;;5061051;28;20013;-59
2023/12/25 13:06:16;;;;;;;13.00;12.40;;;;;;;;;;5071460;28;20043;-59
2023/12/25 13:08:41;;;;;;;12.88;12.27;;;;;;;;;;5074237;28;20024;-59
2023/12/25 13:11:07;;;;;;;12.70;12.10;;;;;;;;;;5070368;28;20619;-59
2023/12/25 13:13:33;;;;;;;12.35;11.77;;;;;;;;;;5074174;28;20017;-58
2023/12/25 13:15:59;;;;;;;12.50;11.90;;;;;;;;;;5071210;28;20045;-59
2023/12/25 13:18:24;;;;;;;12.48;11.88;;;;;;;;;;5072884;28;20044;-59
2023/12/25 13:20:49;;;;;;;13.30;12.70;;;;;;;;;;5074430;28;20027;-59
2023/12/25 13:23:15;;;;;;;12.70;12.10;;;;;;;;;;5073335;28;20012;-59
2023/12/25 13:25:40;;;;;;;12.57;11.98;;;;;;;;;;5066055;28;20066;-59
2023/12/25 13:28:05;;;;;;;13.10;12.50;;;;;;;;;;5068739;28;20020;-58
2023/12/25 13:30:31;;;;;;;12.77;12.18;;;;;;;;;;5073301;28;20373;-57
2023/12/25 13:32:56;;;;;;;12.90;12.30;;;;;;;;;;5073234;28;20020;-58
2023/12/25 13:35:21;;;;;;;12.75;12.15;;;;;;;;;;5072930;28;20049;-59
2023/12/25 13:37:47;;;;;;;12.82;12.23;;;;;;;;;;5082817;28;20032;-59
2023/12/25 13:40:12;;;;;;;12.70;12.10;;;;;;;;;;5071929;28;20489;-60
2023/12/25 13:42:38;;;;;;;12.82;12.23;;;;;;;;;;5072370;28;20024;-58
2023/12/25 13:45:03;;;;;;;12.88;12.27;;;;;;;;;;5071392;28;20031;-58
2023/12/25 13:47:29;;;;;;;13.15;12.55;;;;;;;;;;5067635;28;20035;-58
2023/12/25 13:49:56;;;;;;;12.85;12.25;;;;;;;;;;5068238;28;20020;-59
2023/12/25 13:52:22;;;;;;;12.50;11.90;;;;;;;;;;5073262;28;20020;-58
2023/12/25 13:54:47;;;;;;;13.57;12.95;;;;;;;;;;5067852;28;20456;-60
2023/12/25 13:57:12;;;;;;;13.00;12.40;;;;;;;;;;5072778;28;20096;-59
2023/12/25 13:59:38;;;;;;;13.88;13.18;;;;;;;;;;5071228;28;20130;-57
2023/12/25 14:02:07;;;;;;;13.35;12.75;;;;;;;;;;5074046;28;20024;-58
2023/12/25 14:04:34;;;;;;;12.85;12.25;;;;;;;;;;5068495;28;20024;-58
2023/12/25 14:06:59;;;;;;;13.50;12.90;;;;;;;;;;5066551;28;20093;-56